createdAt,value
2024-03-06T00:00:28.097Z,59.60
2024-03-06T00:02:56.316Z,59.44
2024-03-06T00:05:23.521Z,59.48
2024-03-06T00:07:50.824Z,59.62
2024-03-06T00:10:17.703Z,59.33
2024-03-06T00:12:44.790Z,59.44
2024-03-06T00:15:13.004Z,59.14
2024-03-06T00:17:39.802Z,59.28
2024-03-06T00:20:07.731Z,59.26
2024-03-06T00:22:34.859Z,58.98
2024-03-06T00:25:02.311Z,59.06
2024-03-06T00:27:29.987Z,59.16
2024-03-06T00:29:58.945Z,59.06
2024-03-06T00:32:26.270Z,59.03
2024-03-06T00:34:54.074Z,58.77
2024-03-06T00:37:21.391Z,58.78
2024-03-06T00:39:49.142Z,59.14
2024-03-06T00:42:16.650Z,58.61
2024-03-06T00:44:44.733Z,58.86
2024-03-06T00:47:11.650Z,58.74
2024-03-06T00:49:40.243Z,58.80
2024-03-06T00:52:07.465Z,58.90
2024-03-06T00:54:34.299Z,58.38
2024-03-06T00:57:02.648Z,58.61
2024-03-06T00:59:29.728Z,58.60
2024-03-06T01:01:59.538Z,58.30
2024-03-06T01:04:26.903Z,58.41
2024-03-06T01:06:54.020Z,58.45
2024-03-06T01:09:21.228Z,58.46
2024-03-06T01:11:49.310Z,58.34
2024-03-06T01:14:17.841Z,58.74
2024-03-06T01:16:45.127Z,58.28
2024-03-06T01:19:12.241Z,58.23
2024-03-06T01:21:39.867Z,58.44
2024-03-06T01:24:07.037Z,58.10
2024-03-06T01:26:33.992Z,57.86
2024-03-06T01:29:02.099Z,57.90
2024-03-06T01:31:29.348Z,58.02
2024-03-06T01:33:56.779Z,57.89
2024-03-06T01:36:23.815Z,58.16
2024-03-06T01:38:51.072Z,57.92
2024-03-06T01:41:18.147Z,57.79
2024-03-06T01:43:45.391Z,57.90
2024-03-06T01:46:12.582Z,58.01
2024-03-06T01:48:40.670Z,57.98
2024-03-06T01:51:08.609Z,58.18
2024-03-06T01:53:36.518Z,58.04
2024-03-06T01:56:05.363Z,57.98
2024-03-06T01:58:35.127Z,58.08
2024-03-06T02:01:03.586Z,58.10
2024-03-06T02:03:33.274Z,58.08
2024-03-06T02:06:03.596Z,57.99
2024-03-06T02:08:30.814Z,58.12
2024-03-06T02:10:58.917Z,58.24
2024-03-06T02:13:26.491Z,58.03
2024-03-06T02:15:53.563Z,57.98
2024-03-06T02:18:20.685Z,57.76
2024-03-06T02:20:48.679Z,58.11
2024-03-06T02:23:18.766Z,58.00
2024-03-06T02:25:48.606Z,57.89
2024-03-06T02:28:15.787Z,58.22
2024-03-06T02:30:42.913Z,57.92
2024-03-06T02:33:13.449Z,58.10
2024-03-06T02:35:41.358Z,57.72
2024-03-06T02:38:08.771Z,57.85
2024-03-06T02:40:35.944Z,57.85
2024-03-06T02:43:04.000Z,57.93
2024-03-06T02:45:31.170Z,57.89
2024-03-06T02:47:58.388Z,57.72
2024-03-06T02:50:25.701Z,57.63
2024-03-06T02:52:54.473Z,57.91
2024-03-06T02:55:24.811Z,57.59
2024-03-06T02:57:52.471Z,57.87
2024-03-06T03:00:19.767Z,57.56
2024-03-06T03:02:46.881Z,57.37
2024-03-06T03:05:14.177Z,57.32
2024-03-06T03:07:41.798Z,57.48
2024-03-06T03:10:09.335Z,57.47
2024-03-06T03:12:36.711Z,57.49
2024-03-06T03:15:04.247Z,57.58
2024-03-06T03:17:31.764Z,57.38
2024-03-06T03:19:58.998Z,57.27
2024-03-06T03:22:26.709Z,57.58
2024-03-06T03:24:53.892Z,57.32
2024-03-06T03:27:20.579Z,57.25
2024-03-06T03:29:47.574Z,56.78
2024-03-06T03:32:17.918Z,56.99
2024-03-06T03:34:45.670Z,57.10
2024-03-06T03:37:14.446Z,56.96
2024-03-06T03:39:43.292Z,57.16
2024-03-06T03:42:10.099Z,57.28
2024-03-06T03:44:37.584Z,57.00
2024-03-06T03:47:04.506Z,56.65
2024-03-06T03:49:31.342Z,57.02
2024-03-06T03:51:58.782Z,56.93
2024-03-06T03:54:25.982Z,56.92
2024-03-06T03:56:53.279Z,56.85
2024-03-06T03:59:20.161Z,56.80
2024-03-06T04:01:49.948Z,56.36
2024-03-06T04:04:17.159Z,56.77
2024-03-06T04:06:44.214Z,56.31
2024-03-06T04:09:11.204Z,56.72
2024-03-06T04:11:39.201Z,56.32
2024-03-06T04:14:08.042Z,56.43
2024-03-06T04:16:36.339Z,56.41
2024-03-06T04:19:04.711Z,56.36
2024-03-06T04:21:32.474Z,56.17
2024-03-06T04:23:59.557Z,56.16
2024-03-06T04:26:26.756Z,56.36
2024-03-06T04:28:53.977Z,56.33
2024-03-06T04:31:21.323Z,56.05
2024-03-06T04:33:48.794Z,56.22
2024-03-06T04:36:15.908Z,56.05
2024-03-06T04:38:43.038Z,56.14
2024-03-06T04:41:11.708Z,55.94
2024-03-06T04:43:39.302Z,56.15
2024-03-06T04:46:06.836Z,55.96
2024-03-06T04:48:34.067Z,56.00
2024-03-06T04:51:01.675Z,55.89
2024-03-06T04:53:29.023Z,55.89
2024-03-06T04:55:55.977Z,55.98
2024-03-06T04:58:23.418Z,55.81
2024-03-06T05:00:51.168Z,55.72
2024-03-06T05:58:22.639Z,55.50
2024-03-06T06:00:49.935Z,55.56
2024-03-06T06:03:17.226Z,55.40
2024-03-06T06:05:44.585Z,55.40
2024-03-06T06:08:11.769Z,55.44
2024-03-06T06:10:38.920Z,55.53
2024-03-06T06:13:06.472Z,55.52
2024-03-06T06:15:33.697Z,55.23
2024-03-06T06:18:01.472Z,55.54
2024-03-06T06:20:28.980Z,55.18
2024-03-06T06:22:56.071Z,55.41
2024-03-06T06:25:24.554Z,55.26
2024-03-06T06:27:52.457Z,55.32
2024-03-06T06:30:20.035Z,55.32
2024-03-06T06:32:47.621Z,55.52
2024-03-06T06:35:15.291Z,55.42
2024-03-06T06:37:42.883Z,55.33
2024-03-06T06:40:10.722Z,55.46
2024-03-06T06:42:38.551Z,55.51
2024-03-06T06:45:10.917Z,55.73
2024-03-06T06:47:38.408Z,55.88
2024-03-06T06:50:07.028Z,55.91
2024-03-06T06:52:35.348Z,55.98
2024-03-06T06:55:03.826Z,55.84
2024-03-06T06:57:31.910Z,56.01
2024-03-06T06:59:59.347Z,55.95
2024-03-06T07:02:26.633Z,56.13
2024-03-06T07:04:53.900Z,56.32
2024-03-06T07:07:20.839Z,56.16
2024-03-06T07:09:47.923Z,56.18
2024-03-06T07:12:14.796Z,56.30
2024-03-06T07:14:42.764Z,56.42
2024-03-06T07:17:10.384Z,56.07
2024-03-06T07:19:38.283Z,56.48
2024-03-06T07:22:05.457Z,56.58
2024-03-06T07:24:33.730Z,56.62
2024-03-06T07:27:04.789Z,56.67
2024-03-06T07:29:32.146Z,56.71
2024-03-06T07:31:59.330Z,56.85
2024-03-06T07:34:26.541Z,56.96
2024-03-06T07:36:54.550Z,57.20
2024-03-06T07:39:21.810Z,57.25
2024-03-06T07:41:49.068Z,57.43
2024-03-06T07:44:16.311Z,57.38
2024-03-06T07:46:43.676Z,57.45
2024-03-06T07:49:10.499Z,57.48
2024-03-06T07:51:37.623Z,57.69
2024-03-06T07:54:05.270Z,57.98
2024-03-06T07:56:32.713Z,57.87
2024-03-06T07:58:59.764Z,58.27
2024-03-06T08:01:30.156Z,58.18
2024-03-06T08:03:57.862Z,58.28
2024-03-06T08:06:24.996Z,58.27
2024-03-06T08:08:53.739Z,58.36
2024-03-06T08:11:23.110Z,58.66
2024-03-06T08:13:51.042Z,58.33
2024-03-06T08:16:19.343Z,58.58
2024-03-06T08:18:46.160Z,58.64
2024-03-06T08:21:13.114Z,59.00
2024-03-06T08:23:40.235Z,58.93
2024-03-06T08:26:08.867Z,58.88
2024-03-06T08:28:35.905Z,59.19
2024-03-06T08:31:03.635Z,59.24
2024-03-06T08:33:30.876Z,59.28
2024-03-06T08:35:59.439Z,59.27
2024-03-06T08:38:26.911Z,59.37
2024-03-06T08:40:53.832Z,59.59
2024-03-06T08:43:21.730Z,59.68
2024-03-06T08:45:48.900Z,59.40
2024-03-06T08:48:16.517Z,59.66
2024-03-06T08:50:43.952Z,59.64
2024-03-06T08:53:11.692Z,59.81
2024-03-06T08:55:39.864Z,59.80
2024-03-06T08:58:06.614Z,59.95
2024-03-06T09:00:33.846Z,60.06
2024-03-06T09:03:01.260Z,60.06
2024-03-06T09:05:28.472Z,60.18
2024-03-06T09:07:55.575Z,60.10
2024-03-06T09:10:23.037Z,60.33
2024-03-06T09:12:50.309Z,60.43
2024-03-06T09:15:17.740Z,60.34
2024-03-06T09:17:47.034Z,60.42
2024-03-06T09:20:14.994Z,60.57
2024-03-06T09:22:44.250Z,60.36
2024-03-06T09:25:15.393Z,60.74
2024-03-06T09:27:44.385Z,60.54
2024-03-06T09:30:14.496Z,60.71
2024-03-06T09:32:43.236Z,60.60
2024-03-06T09:35:10.915Z,60.74
2024-03-06T09:37:37.977Z,60.94
2024-03-06T09:40:05.224Z,60.84
2024-03-06T09:42:32.579Z,60.63
2024-03-06T09:45:01.193Z,60.88
2024-03-06T09:47:33.750Z,60.66
2024-03-06T09:50:04.272Z,60.66
2024-03-06T09:52:32.259Z,60.96
2024-03-06T09:55:00.858Z,61.05
2024-03-06T09:57:28.200Z,60.95
2024-03-06T09:59:55.618Z,61.05
2024-03-06T10:02:46.805Z,61.20
2024-03-06T10:05:24.615Z,61.28
2024-03-06T10:07:53.553Z,61.05
2024-03-06T10:10:23.973Z,61.20
2024-03-06T10:12:52.018Z,61.30
2024-03-06T10:15:19.693Z,61.33
2024-03-06T10:17:47.879Z,61.28
2024-03-06T10:20:23.431Z,61.40
2024-03-06T10:22:58.415Z,61.34
2024-03-06T10:25:28.159Z,61.39
2024-03-06T10:28:04.459Z,61.39
2024-03-06T10:30:32.439Z,61.10
2024-03-06T10:33:01.148Z,61.41
2024-03-06T10:35:29.322Z,61.48
2024-03-06T10:37:56.945Z,61.48
2024-03-06T10:40:24.977Z,61.66
2024-03-06T10:42:53.030Z,61.69
2024-03-06T10:45:25.349Z,61.66
2024-03-06T10:47:53.083Z,61.58
2024-03-06T10:50:22.058Z,61.61
2024-03-06T10:52:53.220Z,61.75
2024-03-06T10:55:22.127Z,61.68
2024-03-06T10:57:49.541Z,61.54
2024-03-06T11:00:20.440Z,61.60
2024-03-06T11:02:49.138Z,61.81
2024-03-06T11:05:17.577Z,61.86
2024-03-06T11:07:45.082Z,61.79
2024-03-06T11:10:17.579Z,61.80
2024-03-06T11:12:49.433Z,61.83
2024-03-06T11:15:19.869Z,61.95
2024-03-06T11:17:47.377Z,62.01
2024-03-06T11:20:20.733Z,61.99
2024-03-06T11:22:57.219Z,61.82
2024-03-06T11:25:52.515Z,62.09
2024-03-06T11:28:21.595Z,62.16
2024-03-06T11:31:00.291Z,62.14
2024-03-06T11:33:48.191Z,61.98
2024-03-06T11:36:32.747Z,62.35
2024-03-06T11:39:04.081Z,62.13
2024-03-06T11:41:33.430Z,62.15
2024-03-06T11:44:01.773Z,62.35
2024-03-06T11:46:58.860Z,62.24
2024-03-06T11:49:30.447Z,62.24
2024-03-06T11:52:00.113Z,62.25
2024-03-06T11:54:28.434Z,62.28
2024-03-06T11:56:57.555Z,62.09
2024-03-06T11:59:29.587Z,62.16
2024-03-06T12:01:58.965Z,62.00
2024-03-06T12:04:26.367Z,62.08
2024-03-06T12:06:53.740Z,62.38
2024-03-06T12:09:21.225Z,62.26
2024-03-06T12:11:48.755Z,62.22
2024-03-06T12:14:19.217Z,62.44
2024-03-06T12:16:59.586Z,62.16
2024-03-06T12:19:29.685Z,62.39
2024-03-06T12:21:56.984Z,62.44
2024-03-06T12:24:24.202Z,62.36
2024-03-06T12:27:04.784Z,62.05
2024-03-06T12:29:34.166Z,62.02
2024-03-06T12:32:04.809Z,61.80
2024-03-06T12:34:32.483Z,61.90
2024-03-06T12:37:13.227Z,61.55
2024-03-06T12:39:43.362Z,61.62
2024-03-06T12:42:13.025Z,61.64
2024-03-06T12:44:42.381Z,61.51
2024-03-06T12:47:09.347Z,61.44
2024-03-06T12:49:36.377Z,61.60
2024-03-06T12:52:06.158Z,61.60
2024-03-06T12:54:34.215Z,61.35
2024-03-06T12:57:01.977Z,61.48
2024-03-06T12:59:29.375Z,61.22
2024-03-06T13:01:56.926Z,61.15
2024-03-06T13:04:24.250Z,60.90
2024-03-06T13:06:51.560Z,60.66
2024-03-06T13:09:18.626Z,60.62
2024-03-06T13:11:45.917Z,60.45
2024-03-06T13:14:14.482Z,60.27
2024-03-06T13:16:41.721Z,59.80
2024-03-06T13:19:09.602Z,60.14
2024-03-06T13:21:37.018Z,60.03
2024-03-06T13:24:05.341Z,59.82
2024-03-06T13:26:32.686Z,59.15
2024-03-06T13:29:01.229Z,59.32
2024-03-06T13:31:28.531Z,59.50
2024-03-06T13:33:55.784Z,59.04
2024-03-06T13:36:24.052Z,59.09
2024-03-06T13:38:52.552Z,59.02
2024-03-06T13:41:20.429Z,59.30
2024-03-06T13:43:47.875Z,59.10
2024-03-06T13:46:15.778Z,58.53
2024-03-06T13:48:42.935Z,59.18
2024-03-06T13:51:10.162Z,58.93
2024-03-06T13:53:37.374Z,58.92
2024-03-06T13:56:04.830Z,58.20
2024-03-06T13:58:31.731Z,58.18
2024-03-06T14:00:59.085Z,57.94
2024-03-06T14:03:27.097Z,58.00
2024-03-06T14:05:54.430Z,57.86
2024-03-06T14:08:23.455Z,58.34
2024-03-06T14:10:50.398Z,58.26
2024-03-06T14:13:17.960Z,58.18
2024-03-06T14:15:45.693Z,57.91
2024-03-06T14:18:12.924Z,58.36
2024-03-06T14:20:41.164Z,57.64
2024-03-06T14:23:09.494Z,57.78
2024-03-06T14:25:38.978Z,57.99
2024-03-06T14:28:06.264Z,57.14
2024-03-06T14:30:33.726Z,57.98
2024-03-06T14:33:00.748Z,57.88
2024-03-06T14:35:28.408Z,57.64
2024-03-06T14:37:55.931Z,58.04
2024-03-06T14:40:22.797Z,57.85
2024-03-06T14:42:51.720Z,57.69
2024-03-06T14:45:20.157Z,58.08
2024-03-06T14:47:47.360Z,57.58
2024-03-06T14:50:14.484Z,58.00
2024-03-06T14:52:41.491Z,57.74
2024-03-06T14:55:10.005Z,57.92
2024-03-06T14:57:37.547Z,57.80
2024-03-06T15:00:08.284Z,57.58
2024-03-06T15:02:40.132Z,58.22
2024-03-06T15:05:07.510Z,57.68
2024-03-06T15:07:34.939Z,57.96
2024-03-06T15:10:02.672Z,58.02
2024-03-06T15:12:29.688Z,58.19
2024-03-06T15:14:58.760Z,58.03
2024-03-06T15:17:27.386Z,58.32
2024-03-06T15:19:55.154Z,58.01
2024-03-06T15:22:22.099Z,58.29
2024-03-06T15:24:50.016Z,58.00
2024-03-06T15:27:17.631Z,58.27
2024-03-06T15:29:47.936Z,58.08
2024-03-06T15:32:15.229Z,58.53
2024-03-06T15:34:42.211Z,58.50
2024-03-06T15:37:09.777Z,58.35
2024-03-06T15:39:36.611Z,58.74
2024-03-06T15:42:04.264Z,58.86
2024-03-06T15:44:31.335Z,58.86
2024-03-06T15:47:06.690Z,58.87
2024-03-06T15:49:38.179Z,58.94
2024-03-06T15:52:05.741Z,58.94
2024-03-06T15:54:33.074Z,58.84
2024-03-06T15:57:00.026Z,58.91
2024-03-06T15:59:29.343Z,58.78
2024-03-06T16:01:57.218Z,59.00
2024-03-06T16:04:24.190Z,58.96
2024-03-06T16:06:51.247Z,58.98
2024-03-06T16:09:18.434Z,58.98
2024-03-06T16:11:45.831Z,58.87
2024-03-06T16:14:13.806Z,59.09
2024-03-06T16:16:42.053Z,59.19
2024-03-06T16:19:09.321Z,58.96
2024-03-06T16:21:36.523Z,59.22
2024-03-06T16:24:08.587Z,58.90
2024-03-06T16:26:38.001Z,59.02
2024-03-06T16:29:06.116Z,58.92
2024-03-06T16:31:33.672Z,59.10
2024-03-06T16:34:00.647Z,58.96
2024-03-06T16:36:27.944Z,58.97
2024-03-06T16:38:55.158Z,59.08
2024-03-06T16:41:22.288Z,59.07
2024-03-06T16:43:49.434Z,59.09
2024-03-06T16:46:18.413Z,59.21
2024-03-06T16:48:45.828Z,59.11
2024-03-06T16:51:20.004Z,59.26
2024-03-06T16:53:47.507Z,58.96
2024-03-06T16:56:15.444Z,59.33
2024-03-06T16:58:42.657Z,59.48
2024-03-06T17:01:09.827Z,59.55
2024-03-06T17:03:37.523Z,59.55
2024-03-06T17:06:05.375Z,59.64
2024-03-06T17:08:33.272Z,59.55
2024-03-06T17:11:00.299Z,59.75
2024-03-06T17:13:28.015Z,59.96
2024-03-06T17:15:56.187Z,59.65
2024-03-06T17:18:23.339Z,59.69
2024-03-06T17:20:51.274Z,59.71
2024-03-06T17:23:19.097Z,59.79
2024-03-06T17:25:46.473Z,59.82
2024-03-06T17:28:14.070Z,59.74
2024-03-06T17:30:42.609Z,59.84
2024-03-06T17:33:10.376Z,59.78
2024-03-06T17:35:37.262Z,59.87
2024-03-06T17:38:04.419Z,60.04
2024-03-06T17:40:31.703Z,59.99
2024-03-06T17:42:58.841Z,60.02
2024-03-06T17:45:26.124Z,59.90
2024-03-06T17:47:54.078Z,59.92
2024-03-06T17:50:22.247Z,59.93
2024-03-06T17:52:50.106Z,59.89
2024-03-06T17:55:17.349Z,60.02
2024-03-06T17:57:47.608Z,60.00
2024-03-06T18:00:18.722Z,59.97
2024-03-06T18:02:46.862Z,59.98
2024-03-06T18:05:14.417Z,60.10
2024-03-06T18:07:47.134Z,59.98
2024-03-06T18:10:15.716Z,60.20
2024-03-06T18:12:42.685Z,60.10
2024-03-06T18:15:10.485Z,60.20
2024-03-06T18:17:39.284Z,59.97
2024-03-06T18:20:08.969Z,59.89
2024-03-06T18:22:38.649Z,60.04
2024-03-06T18:25:07.221Z,59.94
2024-03-06T18:27:35.590Z,59.84
2024-03-06T18:30:04.178Z,59.80
2024-03-06T18:32:32.423Z,59.94
2024-03-06T18:34:59.621Z,60.04
2024-03-06T18:37:26.615Z,59.78
2024-03-06T18:39:54.430Z,59.91
2024-03-06T18:42:22.554Z,59.88
2024-03-06T18:44:50.686Z,59.90
2024-03-06T18:47:18.301Z,60.04
2024-03-06T18:49:45.861Z,60.03
2024-03-06T18:52:12.739Z,60.05
2024-03-06T18:54:41.264Z,60.05
2024-03-06T18:57:09.661Z,59.89
2024-03-06T18:59:39.045Z,60.28
2024-03-06T19:02:06.659Z,59.84
2024-03-06T19:04:33.942Z,60.16
2024-03-06T19:07:00.912Z,60.02
2024-03-06T19:09:28.679Z,59.97
2024-03-06T19:11:56.229Z,59.97
2024-03-06T19:14:23.777Z,60.05
2024-03-06T19:16:51.374Z,59.92
2024-03-06T19:19:19.348Z,59.93
2024-03-06T19:21:46.682Z,59.87
2024-03-06T19:24:14.030Z,59.90
2024-03-06T19:26:42.068Z,60.04
2024-03-06T19:29:09.735Z,60.02
2024-03-06T19:31:36.806Z,59.87
2024-03-06T19:34:04.497Z,59.88
2024-03-06T19:36:31.869Z,59.92
2024-03-06T19:38:59.146Z,59.84
2024-03-06T19:41:26.973Z,59.92
2024-03-06T19:43:53.908Z,59.82
2024-03-06T19:46:20.673Z,59.84
2024-03-06T19:48:47.540Z,59.68
2024-03-06T19:51:17.244Z,59.95
2024-03-06T19:53:45.347Z,59.74
2024-03-06T19:56:13.898Z,59.89
2024-03-06T19:58:40.824Z,59.94
2024-03-06T20:01:08.765Z,59.81
2024-03-06T20:03:36.239Z,59.76
2024-03-06T20:06:03.265Z,59.98
2024-03-06T20:08:30.402Z,59.86
2024-03-06T20:10:58.243Z,59.86
2024-03-06T20:13:25.630Z,59.63
2024-03-06T20:15:52.891Z,59.86
2024-03-06T20:18:19.917Z,59.79
2024-03-06T20:20:47.770Z,59.80
2024-03-06T20:23:15.321Z,59.83
2024-03-06T20:25:43.292Z,59.76
2024-03-06T20:28:11.419Z,59.88
2024-03-06T20:30:42.379Z,59.65
2024-03-06T20:33:10.312Z,59.76
2024-03-06T20:35:37.722Z,59.83
2024-03-06T20:38:05.237Z,59.88
2024-03-06T20:40:33.562Z,59.84
2024-03-06T20:43:00.922Z,59.76
2024-03-06T20:45:27.831Z,59.96
2024-03-06T20:48:01.617Z,59.83
2024-03-06T20:50:29.510Z,59.70
2024-03-06T20:52:57.426Z,59.73
2024-03-06T20:55:24.517Z,59.82
2024-03-06T20:57:51.753Z,59.86
2024-03-06T21:00:20.370Z,59.92
2024-03-06T21:02:48.940Z,59.88
2024-03-06T21:05:17.942Z,59.83
2024-03-06T21:07:45.234Z,59.64
2024-03-06T21:10:16.063Z,59.84
2024-03-06T21:12:49.633Z,59.92
2024-03-06T21:15:17.837Z,59.84
2024-03-06T21:17:45.227Z,59.74
2024-03-06T21:20:13.435Z,59.81
2024-03-06T21:22:42.109Z,59.70
2024-03-06T21:25:10.362Z,59.71
2024-03-06T21:27:38.346Z,59.58
2024-03-06T21:30:07.516Z,59.62
2024-03-06T21:32:38.701Z,59.52
2024-03-06T21:35:06.100Z,59.64
2024-03-06T21:37:34.004Z,59.52
2024-03-06T21:40:04.263Z,59.60
2024-03-06T21:42:31.876Z,59.53
2024-03-06T21:44:59.565Z,59.60
2024-03-06T21:47:27.846Z,59.42
2024-03-06T21:49:55.547Z,59.36
2024-03-06T21:52:22.643Z,59.52
2024-03-06T21:54:49.451Z,59.42
2024-03-06T21:57:16.840Z,59.46
2024-03-06T21:59:44.006Z,59.26
2024-03-06T22:02:14.109Z,59.23
2024-03-06T22:04:41.269Z,59.42
2024-03-06T22:07:08.334Z,59.13
2024-03-06T22:09:38.452Z,59.31
2024-03-06T22:12:06.428Z,59.30
2024-03-06T22:14:33.743Z,59.12
2024-03-06T22:17:00.927Z,59.26
2024-03-06T22:19:28.266Z,59.26
2024-03-06T22:21:55.385Z,59.15
2024-03-06T22:24:22.838Z,59.02
2024-03-06T22:26:50.623Z,58.98
2024-03-06T22:29:18.071Z,59.01
2024-03-06T22:31:45.615Z,59.07
2024-03-06T22:34:12.953Z,58.85
2024-03-06T22:36:40.088Z,58.90
2024-03-06T22:39:07.969Z,58.77
2024-03-06T22:41:37.240Z,59.02
2024-03-06T22:44:06.648Z,59.10
2024-03-06T22:46:44.277Z,58.68
2024-03-06T22:49:18.705Z,58.70
2024-03-06T22:51:45.779Z,58.79
2024-03-06T22:54:12.950Z,58.76
2024-03-06T22:56:40.918Z,58.88
2024-03-06T22:59:08.881Z,58.52
2024-03-06T23:01:37.212Z,58.51
2024-03-06T23:04:05.326Z,58.84
2024-03-06T23:06:32.467Z,58.64
2024-03-06T23:09:00.766Z,58.70
2024-03-06T23:11:30.472Z,58.91
2024-03-06T23:13:57.871Z,58.49
2024-03-06T23:16:25.123Z,58.71
2024-03-06T23:18:53.115Z,58.40
2024-03-06T23:21:20.392Z,58.59
2024-03-06T23:23:47.970Z,58.53
2024-03-06T23:26:15.682Z,58.27
2024-03-06T23:28:42.988Z,58.32
2024-03-06T23:31:10.549Z,58.34
2024-03-06T23:33:37.332Z,58.15
2024-03-06T23:36:05.009Z,58.28
2024-03-06T23:38:32.104Z,58.32
2024-03-06T23:40:59.525Z,58.32
2024-03-06T23:43:26.477Z,58.22
2024-03-06T23:45:53.172Z,58.15
2024-03-06T23:48:20.905Z,58.34
2024-03-06T23:50:48.088Z,58.00
2024-03-06T23:53:16.151Z,57.94
2024-03-06T23:55:43.187Z,57.96
2024-03-06T23:58:10.692Z,57.95
